Time;durP1;ratioP1;P1;durP2;ratioP2;P2;SDS_P1;SDS_P2;PMS_P1;PMS_P2;Temp;Humidity;BMP_temperature;BMP_pressure;BME280_temperature;BME280_humidity;BME280_pressure;Samples;Min_cycle;Max_cycle;Signal;HPM_P1;HPM_P2
2022/03/10 00:02:25;;;;;;;28.55;21.65;;;10.50;99.90;;;;;;5046688;28;20129;-71
2022/03/10 00:04:51;;;;;;;27.77;21.08;;;10.50;99.90;;;;;;5045858;28;20036;-71
2022/03/10 00:07:16;;;;;;;28.83;20.52;;;10.50;99.90;;;;;;5046082;28;20041;-71
2022/03/10 00:09:42;;;;;;;28.60;20.48;;;10.50;99.90;;;;;;5047133;28;20041;-70
2022/03/10 00:12:08;;;;;;;30.77;21.50;;;10.50;99.90;;;;;;5045263;28;20559;-70
2022/03/10 00:14:34;;;;;;;29.17;21.23;;;10.40;99.90;;;;;;5044450;28;20106;-70
2022/03/10 00:17:00;;;;;;;29.67;21.92;;;10.50;99.90;;;;;;5045671;28;20492;-70
2022/03/10 00:19:26;;;;;;;32.03;22.08;;;10.50;99.90;;;;;;5047097;28;20037;-70
2022/03/10 00:21:51;;;;;;;32.28;23.42;;;10.50;99.90;;;;;;5047384;28;20029;-70
2022/03/10 00:24:21;;;;;;;32.45;23.73;;;10.50;99.90;;;;;;5047218;28;20071;-70
2022/03/10 00:26:47;;;;;;;33.22;23.38;;;10.50;99.90;;;;;;5047203;28;20117;-70
2022/03/10 00:29:13;;;;;;;37.15;25.52;;;10.40;99.90;;;;;;5039765;28;20501;-70
2022/03/10 00:31:42;;;;;;;36.75;25.92;;;10.40;99.90;;;;;;5047690;28;20029;-70
2022/03/10 00:34:09;;;;;;;38.88;26.13;;;10.30;99.90;;;;;;5048589;28;20100;-70
2022/03/10 00:36:35;;;;;;;33.20;24.85;;;10.30;99.90;;;;;;5047564;28;20091;-70
2022/03/10 00:39:02;;;;;;;39.15;26.52;;;10.30;99.90;;;;;;5046926;28;20045;-70
2022/03/10 00:41:28;;;;;;;37.88;26.05;;;10.20;99.90;;;;;;5047325;28;20424;-70
2022/03/10 00:43:54;;;;;;;36.75;26.73;;;10.20;99.90;;;;;;5045955;28;20094;-70
2022/03/10 00:46:19;;;;;;;38.97;26.58;;;10.10;99.90;;;;;;5044077;28;20102;-70
2022/03/10 00:48:45;;;;;;;35.63;26.02;;;10.10;99.90;;;;;;5048181;28;20029;-70
2022/03/10 00:51:11;;;;;;;41.38;26.27;;;10.20;99.90;;;;;;5046594;28;20037;-70
2022/03/10 00:53:37;;;;;;;34.97;24.48;;;10.10;99.90;;;;;;5047154;28;20029;-70
2022/03/10 00:56:03;;;;;;;36.55;25.17;;;10.20;99.90;;;;;;5049292;28;20097;-70
2022/03/10 00:58:28;;;;;;;33.10;23.65;;;10.20;99.90;;;;;;5051024;28;20076;-71
2022/03/10 01:00:55;;;;;;;34.60;23.73;;;10.30;99.90;;;;;;5052434;28;20071;-71
2022/03/10 01:03:21;;;;;;;39.25;25.52;;;10.30;99.90;;;;;;5050619;28;20033;-71
2022/03/10 01:05:47;;;;;;;34.97;26.38;;;10.30;99.90;;;;;;5042439;28;20094;-71
2022/03/10 01:08:13;;;;;;;38.42;25.98;;;10.30;99.90;;;;;;5042976;28;20155;-71
2022/03/10 01:10:42;;;;;;;38.47;26.67;;;10.20;99.90;;;;;;5044150;28;20091;-71
2022/03/10 01:13:18;;;;;;;38.53;26.02;;;10.10;99.90;;;;;;5046661;28;20030;-71
2022/03/10 01:15:46;;;;;;;36.60;26.05;;;10.10;99.90;;;;;;5049616;28;20025;-70
2022/03/10 01:18:13;;;;;;;35.13;25.33;;;10.00;99.90;;;;;;5049482;28;20047;-71
2022/03/10 01:20:39;;;;;;;37.78;25.35;;;10.10;99.90;;;;;;5051545;28;20404;-71
2022/03/10 01:23:04;;;;;;;37.45;26.27;;;10.10;99.90;;;;;;5052414;28;20040;-70
2022/03/10 01:25:30;;;;;;;33.22;23.98;;;10.00;99.90;;;;;;5051854;28;20136;-70
2022/03/10 01:27:56;;;;;;;33.63;24.48;;;10.10;99.90;;;;;;5053448;28;20091;-71
2022/03/10 01:30:22;;;;;;;34.45;24.58;;;10.10;99.90;;;;;;5052392;28;20036;-70
2022/03/10 01:32:48;;;;;;;36.22;24.08;;;10.00;99.90;;;;;;5052397;28;20404;-70
2022/03/10 01:35:15;;;;;;;33.75;24.40;;;10.00;99.90;;;;;;5052377;28;20036;-70
2022/03/10 01:37:41;;;;;;;32.30;24.10;;;10.00;99.90;;;;;;5053173;28;20028;-70
2022/03/10 01:40:10;;;;;;;36.20;24.25;;;10.00;99.90;;;;;;5053382;28;20033;-70
2022/03/10 01:42:36;;;;;;;37.80;25.80;;;10.00;99.90;;;;;;5052729;28;20044;-68
2022/03/10 01:45:03;;;;;;;35.60;25.38;;;9.90;99.90;;;;;;5044924;28;20095;-69
2022/03/10 01:47:29;;;;;;;34.47;24.27;;;9.90;99.90;;;;;;5049362;28;20110;-68
2022/03/10 01:49:55;;;;;;;37.13;25.63;;;9.90;99.90;;;;;;5054308;28;20036;-69
2022/03/10 01:52:21;;;;;;;34.92;24.45;;;9.90;99.90;;;;;;5054185;28;20378;-69
2022/03/10 01:54:47;;;;;;;39.10;26.00;;;9.90;99.90;;;;;;5053361;28;20082;-70
2022/03/10 01:57:14;;;;;;;36.92;26.52;;;9.80;99.90;;;;;;5052606;28;20036;-69
2022/03/10 01:59:40;;;;;;;38.38;27.67;;;9.80;99.90;;;;;;5054065;28;20602;-69
2022/03/10 02:02:07;;;;;;;39.53;27.38;;;9.80;99.90;;;;;;5053670;28;20493;-69
2022/03/10 02:04:33;;;;;;;40.83;28.15;;;9.90;99.90;;;;;;5054400;28;20426;-69
2022/03/10 02:07:02;;;;;;;41.00;26.63;;;9.70;99.90;;;;;;5052882;28;20104;-69
2022/03/10 02:12:12;;;;;;;;;;;9.60;99.90;;;;;;5051479;28;20523;-69
2022/03/10 02:17:28;;;;;;;38.72;26.63;;;9.60;99.90;;;;;;5044905;28;20088;-69
2022/03/10 02:19:56;;;;;;;43.03;28.88;;;9.60;99.90;;;;;;5047456;28;20476;-69
2022/03/10 02:22:23;;;;;;;39.72;28.35;;;9.60;99.90;;;;;;5047846;28;20037;-69
2022/03/10 02:24:50;;;;;;;40.00;28.52;;;9.60;99.90;;;;;;5046137;28;20037;-69
2022/03/10 02:27:21;;;;;;;46.40;29.05;;;9.70;99.90;;;;;;5046794;28;20106;-69
2022/03/10 02:29:52;;;;;;;38.05;27.45;;;9.70;99.90;;;;;;5045613;28;20029;-69
2022/03/10 02:32:18;;;;;;;41.17;28.35;;;9.70;99.90;;;;;;5044995;28;20033;-70
2022/03/10 02:34:45;;;;;;;42.78;27.85;;;9.70;99.90;;;;;;5049018;28;20044;-70
2022/03/10 02:37:11;;;;;;;42.20;27.60;;;9.70;99.90;;;;;;5045699;28;20033;-69
2022/03/10 02:39:38;;;;;;;39.65;28.02;;;9.80;99.90;;;;;;5049117;28;20052;-69
2022/03/10 02:42:05;;;;;;;41.55;26.75;;;9.80;99.90;;;;;;5045965;28;20064;-70
2022/03/10 02:44:31;;;;;;;41.78;27.35;;;9.90;99.90;;;;;;5050407;28;20033;-70
2022/03/10 02:46:57;;;;;;;38.08;26.83;;;9.90;99.90;;;;;;5054036;28;20017;-70
2022/03/10 02:49:23;;;;;;;39.47;27.85;;;9.90;99.90;;;;;;5054158;28;20044;-70
2022/03/10 02:51:49;;;;;;;39.17;26.90;;;9.80;99.90;;;;;;5052529;28;20059;-70
2022/03/10 02:54:15;;;;;;;40.38;27.83;;;9.80;99.90;;;;;;5054134;28;20078;-70
2022/03/10 02:56:41;;;;;;;38.10;26.35;;;9.70;99.90;;;;;;5053854;28;20112;-70
2022/03/10 02:59:06;;;;;;;41.45;28.05;;;9.70;99.90;;;;;;5053785;28;20017;-70
2022/03/10 03:01:32;;;;;;;38.17;26.63;;;9.70;99.90;;;;;;5053610;28;20033;-70
2022/03/10 03:03:58;;;;;;;39.38;27.83;;;9.70;99.90;;;;;;5052863;28;20033;-70
2022/03/10 03:06:24;;;;;;;38.33;27.02;;;9.70;99.90;;;;;;5055251;28;20112;-68
2022/03/10 03:08:50;;;;;;;37.95;28.15;;;9.70;99.90;;;;;;5053625;28;20481;-68
2022/03/10 03:11:16;;;;;;;37.05;27.00;;;9.70;99.90;;;;;;5054045;28;20040;-68
2022/03/10 03:13:41;;;;;;;41.40;27.75;;;9.70;99.90;;;;;;5053664;28;20133;-69
2022/03/10 03:16:07;;;;;;;39.47;27.65;;;9.70;99.90;;;;;;5052704;28;20032;-69
2022/03/10 03:18:33;;;;;;;36.28;25.90;;;9.70;99.90;;;;;;5052823;28;20029;-69
2022/03/10 03:20:59;;;;;;;37.92;26.88;;;9.70;99.90;;;;;;5053600;28;20044;-69
2022/03/10 03:23:25;;;;;;;38.30;27.45;;;9.70;99.90;;;;;;5051118;28;20082;-70
2022/03/10 03:25:52;;;;;;;40.45;28.23;;;9.70;99.90;;;;;;5047750;28;20074;-69
2022/03/10 03:28:21;;;;;;;39.08;27.70;;;9.70;99.90;;;;;;5052028;28;20037;-70
2022/03/10 03:30:50;;;;;;;38.90;26.92;;;9.70;99.90;;;;;;5048003;28;20097;-69
2022/03/10 03:33:16;;;;;;;39.58;28.13;;;9.70;99.90;;;;;;5047136;28;20033;-69
2022/03/10 03:35:42;;;;;;;38.83;27.27;;;9.70;99.90;;;;;;5044282;28;20026;-69
2022/03/10 03:38:08;;;;;;;35.97;27.08;;;9.70;99.90;;;;;;5049748;28;20024;-69
2022/03/10 03:40:34;;;;;;;38.67;26.83;;;9.80;99.90;;;;;;5045991;28;20021;-69
2022/03/10 03:43:00;;;;;;;40.83;27.42;;;9.80;99.90;;;;;;5045859;28;20029;-68
2022/03/10 03:45:26;;;;;;;39.20;26.83;;;9.80;99.90;;;;;;5048943;28;20473;-70
2022/03/10 03:47:53;;;;;;;39.35;26.83;;;9.80;99.90;;;;;;5044875;28;20044;-69
2022/03/10 03:50:19;;;;;;;38.08;26.80;;;9.80;99.90;;;;;;5048825;28;20032;-70
2022/03/10 03:52:44;;;;;;;36.20;25.92;;;9.80;99.90;;;;;;5046438;28;20025;-69
2022/03/10 03:55:10;;;;;;;37.13;27.88;;;9.90;99.90;;;;;;5044382;28;20549;-69
2022/03/10 03:57:36;;;;;;;37.17;26.40;;;9.90;99.90;;;;;;5048919;28;20036;-69
2022/03/10 04:00:03;;;;;;;39.50;28.08;;;9.80;99.90;;;;;;5046022;28;20030;-68
2022/03/10 04:02:31;;;;;;;36.10;25.73;;;9.80;99.90;;;;;;5050401;28;20044;-68
2022/03/10 04:04:56;;;;;;;37.67;27.85;;;9.70;99.90;;;;;;5051244;28;20393;-68
2022/03/10 04:07:22;;;;;;;37.33;26.63;;;9.70;99.90;;;;;;5048089;28;20021;-69
2022/03/10 04:09:49;;;;;;;38.28;26.48;;;9.70;99.90;;;;;;5047563;28;20040;-68
2022/03/10 04:12:14;;;;;;;37.72;27.02;;;9.60;99.90;;;;;;5048079;28;20025;-68
2022/03/10 04:14:40;;;;;;;33.90;25.98;;;9.60;99.90;;;;;;5048374;28;20048;-69
2022/03/10 04:17:06;;;;;;;37.22;26.73;;;9.60;99.90;;;;;;5050137;28;20044;-69
2022/03/10 04:19:32;;;;;;;38.67;26.45;;;9.60;99.90;;;;;;5044702;28;20515;-70
2022/03/10 04:21:58;;;;;;;38.25;27.38;;;9.50;99.90;;;;;;5045507;28;20485;-70
2022/03/10 04:24:23;;;;;;;35.30;25.90;;;9.50;99.90;;;;;;5048012;28;20079;-70
2022/03/10 04:26:49;;;;;;;39.22;26.10;;;9.50;99.90;;;;;;5048825;28;20045;-71
2022/03/10 04:29:15;;;;;;;38.65;26.83;;;9.50;99.90;;;;;;5051764;28;20032;-71
2022/03/10 04:31:42;;;;;;;36.90;25.88;;;9.50;99.90;;;;;;5039611;28;20025;-71
2022/03/10 04:34:08;;;;;;;36.70;25.48;;;9.50;99.90;;;;;;5044457;28;20036;-71
2022/03/10 04:36:34;;;;;;;38.70;26.17;;;9.50;99.90;;;;;;5047275;28;20142;-71
2022/03/10 04:39:01;;;;;;;35.17;26.83;;;9.50;99.90;;;;;;5046934;28;20025;-71
2022/03/10 04:41:27;;;;;;;35.75;25.88;;;9.40;99.90;;;;;;5047456;28;20024;-71
2022/03/10 04:43:53;;;;;;;40.17;26.20;;;9.50;99.90;;;;;;5047470;28;20070;-71
2022/03/10 04:46:19;;;;;;;40.85;27.55;;;9.50;99.90;;;;;;5043948;28;20470;-71
2022/03/10 04:48:44;;;;;;;34.33;24.75;;;9.50;99.90;;;;;;5046338;28;20401;-71
2022/03/10 04:51:10;;;;;;;34.40;26.92;;;9.50;99.90;;;;;;5044287;28;20083;-71
2022/03/10 04:53:36;;;;;;;34.42;25.25;;;9.50;99.90;;;;;;5046811;28;20030;-71
2022/03/10 04:56:02;;;;;;;37.83;25.88;;;9.50;99.90;;;;;;5048974;28;20033;-71
2022/03/10 04:58:27;;;;;;;34.00;23.90;;;9.60;99.90;;;;;;5044689;28;20514;-71
2022/03/10 05:00:53;;;;;;;36.85;25.13;;;9.50;99.90;;;;;;5045501;28;20032;-71
2022/03/10 05:03:19;;;;;;;35.97;24.63;;;9.50;99.90;;;;;;5045844;28;20505;-70
2022/03/10 05:05:46;;;;;;;34.00;24.65;;;9.50;99.90;;;;;;5045925;28;20029;-70
2022/03/10 05:08:12;;;;;;;36.97;25.23;;;9.60;99.90;;;;;;5048768;28;20029;-70
2022/03/10 05:10:37;;;;;;;35.08;24.38;;;9.60;99.90;;;;;;5044303;28;20024;-70
2022/03/10 05:13:04;;;;;;;32.65;24.30;;;9.60;99.90;;;;;;5044410;28;20087;-71
2022/03/10 05:15:31;;;;;;;32.67;23.55;;;9.70;99.90;;;;;;5044441;28;20033;-71
2022/03/10 05:17:58;;;;;;;32.65;23.00;;;9.70;99.90;;;;;;5042432;28;20069;-71
2022/03/10 05:20:26;;;;;;;34.78;23.73;;;9.80;99.90;;;;;;5050673;28;20017;-71
2022/03/10 05:22:54;;;;;;;33.83;24.70;;;9.80;99.90;;;;;;5047918;28;20040;-70
2022/03/10 05:25:22;;;;;;;33.15;23.40;;;9.80;99.90;;;;;;5044803;28;20036;-70
2022/03/10 05:27:48;;;;;;;34.03;23.05;;;9.80;99.90;;;;;;5050507;28;20036;-71
2022/03/10 05:30:15;;;;;;;31.38;22.15;;;9.90;99.90;;;;;;5045229;28;20041;-70
2022/03/10 05:32:41;;;;;;;35.53;22.77;;;9.90;99.90;;;;;;5047768;28;20440;-70
2022/03/10 05:35:09;;;;;;;34.63;23.63;;;9.90;99.90;;;;;;5031908;28;20037;-70
2022/03/10 05:37:38;;;;;;;31.50;22.58;;;9.90;99.90;;;;;;5045418;28;20535;-70
2022/03/10 05:40:09;;;;;;;32.90;22.20;;;9.90;99.90;;;;;;5044225;28;20488;-70
2022/03/10 05:42:38;;;;;;;32.78;22.52;;;10.00;99.90;;;;;;5048815;28;20064;-70
2022/03/10 05:45:04;;;;;;;31.70;22.08;;;10.00;99.90;;;;;;5048757;28;20493;-71
2022/03/10 05:47:30;;;;;;;29.58;21.88;;;10.00;99.90;;;;;;5052770;28;20033;-71
2022/03/10 05:49:56;;;;;;;32.22;22.85;;;10.00;99.90;;;;;;5051261;28;20082;-71
2022/03/10 05:52:22;;;;;;;34.83;22.50;;;10.10;99.90;;;;;;5048789;28;20076;-70
2022/03/10 05:54:47;;;;;;;32.38;22.42;;;10.00;99.90;;;;;;5047715;28;20029;-71
2022/03/10 05:57:14;;;;;;;32.45;22.83;;;10.00;99.90;;;;;;5047154;28;20029;-70
2022/03/10 05:59:42;;;;;;;33.08;22.88;;;10.10;99.90;;;;;;5050269;28;20044;-72
2022/03/10 06:02:07;;;;;;;31.25;21.85;;;10.00;99.90;;;;;;5050760;28;20104;-71
2022/03/10 06:04:33;;;;;;;32.65;22.83;;;10.00;99.90;;;;;;5054010;28;20029;-71
2022/03/10 06:07:00;;;;;;;35.33;23.15;;;10.10;99.90;;;;;;5045484;28;20100;-71
2022/03/10 06:09:26;;;;;;;32.55;23.63;;;10.00;99.90;;;;;;5046312;28;20037;-71
2022/03/10 06:11:51;;;;;;;35.42;23.30;;;10.00;99.90;;;;;;5049026;28;20033;-71
2022/03/10 06:14:18;;;;;;;35.28;23.00;;;10.10;99.90;;;;;;5052865;28;20064;-71
2022/03/10 06:16:44;;;;;;;35.50;24.60;;;10.00;99.90;;;;;;5048213;28;20039;-72
2022/03/10 06:19:13;;;;;;;33.63;22.00;;;10.00;99.90;;;;;;5044755;28;20540;-73
2022/03/10 06:21:38;;;;;;;32.10;21.60;;;10.00;99.90;;;;;;5053750;28;20108;-72
2022/03/10 06:24:05;;;;;;;32.47;21.98;;;10.00;99.90;;;;;;5046706;28;20536;-72
2022/03/10 06:26:31;;;;;;;31.95;22.00;;;10.00;99.90;;;;;;5045437;28;20397;-71
2022/03/10 06:28:57;;;;;;;31.48;22.55;;;10.00;99.90;;;;;;5054380;28;20090;-70
2022/03/10 06:31:24;;;;;;;30.98;22.02;;;10.10;99.90;;;;;;5050209;28;20032;-71
2022/03/10 06:33:54;;;;;;;27.75;21.73;;;10.10;99.90;;;;;;5056868;28;20115;-71
2022/03/10 06:36:19;;;;;;;31.40;22.88;;;10.20;99.90;;;;;;5051916;28;20040;-71
2022/03/10 06:38:45;;;;;;;30.13;21.15;;;10.20;99.90;;;;;;5054314;28;20029;-69
2022/03/10 06:41:11;;;;;;;33.90;22.70;;;10.20;99.90;;;;;;5044808;28;20037;-69
2022/03/10 06:43:37;;;;;;;32.50;22.15;;;10.20;99.90;;;;;;5045839;28;20085;-70
2022/03/10 06:46:04;;;;;;;32.22;23.00;;;10.20;99.90;;;;;;5046170;28;20021;-69
2022/03/10 06:48:29;;;;;;;32.25;21.38;;;10.20;99.90;;;;;;5050775;28;20041;-69
2022/03/10 06:50:55;;;;;;;31.98;22.85;;;10.30;99.90;;;;;;5049136;28;20028;-69
2022/03/10 06:53:21;;;;;;;32.30;22.60;;;10.30;99.90;;;;;;5044332;28;20115;-69
2022/03/10 06:55:47;;;;;;;30.10;21.38;;;10.30;99.90;;;;;;5045972;28;20511;-69
2022/03/10 06:58:13;;;;;;;30.85;20.98;;;10.20;99.90;;;;;;5044465;28;20029;-69
2022/03/10 07:00:38;;;;;;;37.17;21.88;;;10.20;99.90;;;;;;5051710;28;20105;-69
2022/03/10 07:03:04;;;;;;;28.65;20.88;;;10.30;99.90;;;;;;5051438;28;20362;-69
2022/03/10 07:05:30;;;;;;;33.15;21.63;;;10.30;99.90;;;;;;5047103;28;20048;-69
2022/03/10 07:07:56;;;;;;;33.53;20.98;;;10.20;99.90;;;;;;5047043;28;20039;-69
2022/03/10 07:10:22;;;;;;;30.35;22.52;;;10.30;99.90;;;;;;5045602;28;20036;-69
2022/03/10 07:12:48;;;;;;;33.33;21.98;;;10.30;99.90;;;;;;5045292;28;20393;-69
2022/03/10 07:15:14;;;;;;;29.67;21.25;;;10.40;99.90;;;;;;5044126;28;20052;-69
2022/03/10 07:17:41;;;;;;;31.10;22.15;;;10.30;99.90;;;;;;5049923;28;20033;-69
2022/03/10 07:20:08;;;;;;;31.38;21.60;;;10.40;99.90;;;;;;5049621;28;20033;-71
2022/03/10 07:22:34;;;;;;;31.38;21.13;;;10.40;99.90;;;;;;5045556;28;20111;-70
2022/03/10 07:25:00;;;;;;;29.08;21.65;;;10.30;99.90;;;;;;5045554;28;20393;-70
2022/03/10 07:27:26;;;;;;;30.70;21.27;;;10.40;99.90;;;;;;5052598;28;20047;-68
2022/03/10 07:29:52;;;;;;;32.17;21.30;;;10.40;99.90;;;;;;5043678;28;20029;-69
2022/03/10 07:32:18;;;;;;;29.40;20.05;;;10.40;99.90;;;;;;5051001;28;20382;-68
2022/03/10 07:34:47;;;;;;;30.98;21.00;;;10.40;99.90;;;;;;5045718;28;20126;-69
2022/03/10 07:37:16;;;;;;;30.60;21.73;;;10.40;99.90;;;;;;5044135;28;20033;-69
2022/03/10 07:39:42;;;;;;;31.95;22.00;;;10.50;99.90;;;;;;5045731;28;20044;-69
2022/03/10 07:42:08;;;;;;;30.42;21.27;;;10.50;99.90;;;;;;5046961;28;20061;-68
2022/03/10 07:44:34;;;;;;;28.58;20.25;;;10.50;99.90;;;;;;5049989;28;20029;-67
2022/03/10 07:47:00;;;;;;;28.85;20.65;;;10.60;99.90;;;;;;5047905;28;20098;-68
2022/03/10 07:49:25;;;;;;;30.50;21.55;;;10.60;99.90;;;;;;5044792;28;20047;-68
2022/03/10 07:51:51;;;;;;;31.73;20.50;;;10.60;99.90;;;;;;5043559;28;20079;-68
2022/03/10 07:54:17;;;;;;;29.90;21.83;;;10.70;99.90;;;;;;5044502;28;20558;-68
2022/03/10 07:56:43;;;;;;;33.78;21.38;;;10.80;99.90;;;;;;5049239;28;20037;-71
2022/03/10 07:59:08;;;;;;;31.17;21.45;;;10.70;99.90;;;;;;5049885;28;20059;-70
2022/03/10 08:01:34;;;;;;;33.22;20.83;;;10.70;99.90;;;;;;5043912;28;20025;-73
2022/03/10 08:04:00;;;;;;;29.48;20.77;;;10.70;99.90;;;;;;5042727;28;20021;-73
2022/03/10 08:06:27;;;;;;;32.47;21.90;;;10.80;99.90;;;;;;5044183;28;20099;-71
2022/03/10 08:08:53;;;;;;;32.58;22.27;;;10.80;99.90;;;;;;5049213;28;20052;-74
2022/03/10 08:11:19;;;;;;;32.78;22.55;;;10.70;99.90;;;;;;5049080;28;20036;-69
2022/03/10 08:13:45;;;;;;;33.15;23.00;;;10.70;99.90;;;;;;5044759;28;20059;-70
2022/03/10 08:16:11;;;;;;;31.33;22.70;;;10.70;99.90;;;;;;5042825;28;20065;-70
2022/03/10 08:18:38;;;;;;;33.00;23.15;;;10.80;99.90;;;;;;5051291;28;20106;-71
2022/03/10 08:21:04;;;;;;;34.55;23.33;;;10.80;99.90;;;;;;5048683;28;20386;-71
2022/03/10 08:23:30;;;;;;;36.30;25.42;;;10.80;99.90;;;;;;5051694;28;20074;-71
2022/03/10 08:25:56;;;;;;;35.72;25.17;;;10.80;99.90;;;;;;5054012;28;20031;-71
2022/03/10 08:28:23;;;;;;;38.83;25.55;;;10.80;99.90;;;;;;5044935;28;20116;-72
2022/03/10 08:30:49;;;;;;;38.75;26.85;;;10.70;99.90;;;;;;5049555;28;20184;-72
2022/03/10 08:33:14;;;;;;;38.10;26.88;;;10.80;99.90;;;;;;5049769;28;20041;-69
2022/03/10 08:35:41;;;;;;;38.28;25.08;;;10.90;99.90;;;;;;5047572;28;20036;-75
2022/03/10 08:38:07;;;;;;;35.63;25.85;;;11.00;99.90;;;;;;5045608;28;20025;-70
2022/03/10 08:40:33;;;;;;;33.92;24.75;;;11.10;99.90;;;;;;5045163;28;20456;-68
2022/03/10 08:43:00;;;;;;;35.35;24.88;;;11.20;99.90;;;;;;5046116;28;20531;-70
2022/03/10 08:45:26;;;;;;;35.65;24.63;;;11.30;99.90;;;;;;5051619;28;20409;-71
2022/03/10 08:47:55;;;;;;;37.03;25.00;;;11.30;99.90;;;;;;5050492;28;20044;-71
2022/03/10 08:50:25;;;;;;;36.30;23.98;;;11.40;99.90;;;;;;5050173;28;20389;-71
2022/03/10 08:52:51;;;;;;;37.97;24.10;;;11.50;99.90;;;;;;5051699;28;20755;-71
2022/03/10 08:55:17;;;;;;;32.92;22.73;;;11.60;99.90;;;;;;5052082;28;20040;-70
2022/03/10 08:57:42;;;;;;;34.10;22.20;;;11.70;99.90;;;;;;5050795;28;20048;-71
2022/03/10 09:00:10;;;;;;;34.42;23.05;;;12.20;99.90;;;;;;5052126;28;20489;-71
2022/03/10 09:02:36;;;;;;;34.05;23.95;;;12.80;99.90;;;;;;5051389;28;20580;-71
2022/03/10 09:05:04;;;;;;;35.28;23.13;;;12.60;99.90;;;;;;5052759;28;20025;-70
2022/03/10 09:07:29;;;;;;;35.60;22.45;;;12.90;99.90;;;;;;5051932;28;20033;-71
2022/03/10 09:09:55;;;;;;;32.78;23.65;;;13.30;99.90;;;;;;5051463;28;20051;-71
2022/03/10 09:12:21;;;;;;;31.70;21.73;;;13.70;99.90;;;;;;5052625;28;20059;-70
2022/03/10 09:14:47;;;;;;;29.80;22.02;;;14.20;99.90;;;;;;5051844;28;20512;-71
2022/03/10 09:17:13;;;;;;;29.80;21.92;;;14.00;99.90;;;;;;5054518;28;20132;-71
2022/03/10 09:19:39;;;;;;;31.73;22.88;;;13.40;99.90;;;;;;5048189;28;20064;-71
2022/03/10 09:22:05;;;;;;;30.38;21.95;;;13.90;99.90;;;;;;5054292;28;20551;-71
2022/03/10 09:24:31;;;;;;;29.10;21.25;;;15.10;99.90;;;;;;5055750;28;20033;-71
2022/03/10 09:26:57;;;;;;;29.13;21.50;;;15.70;99.90;;;;;;5056391;28;20029;-69
2022/03/10 09:29:23;;;;;;;31.05;22.20;;;15.50;99.90;;;;;;5055471;28;20033;-69
2022/03/10 09:31:49;;;;;;;30.02;22.10;;;15.40;99.90;;;;;;5056062;28;20035;-69
2022/03/10 09:34:15;;;;;;;31.10;21.45;;;15.30;99.90;;;;;;5055014;28;20518;-69
2022/03/10 09:36:40;;;;;;;30.77;22.13;;;15.40;99.90;;;;;;5055925;28;20024;-69
2022/03/10 09:39:06;;;;;;;30.75;21.65;;;15.40;99.90;;;;;;5055469;28;20029;-69
2022/03/10 09:41:32;;;;;;;37.90;21.33;;;15.50;99.90;;;;;;5054850;28;20025;-69
2022/03/10 09:44:00;;;;;;;33.33;22.23;;;15.70;99.90;;;;;;5047492;28;20033;-69
2022/03/10 09:46:26;;;;;;;33.70;22.63;;;15.50;99.90;;;;;;5054816;28;20029;-70
2022/03/10 09:48:54;;;;;;;29.30;21.77;;;15.60;99.90;;;;;;5055666;28;20037;-69
2022/03/10 09:51:25;;;;;;;27.92;21.80;;;14.90;99.90;;;;;;5055312;28;20028;-69
2022/03/10 09:53:50;;;;;;;29.75;21.33;;;14.50;99.90;;;;;;5055482;28;20039;-69
2022/03/10 09:56:20;;;;;;;30.92;21.52;;;14.90;99.90;;;;;;5055884;28;20028;-68
2022/03/10 09:58:46;;;;;;;30.88;22.08;;;14.50;99.90;;;;;;5055029;28;20521;-69
2022/03/10 10:01:12;;;;;;;35.00;21.63;;;14.50;99.90;;;;;;5054085;28;20033;-68
2022/03/10 10:03:37;;;;;;;31.85;22.17;;;14.70;99.90;;;;;;5055553;28;20025;-69
2022/03/10 10:06:04;;;;;;;30.83;22.02;;;14.30;99.90;;;;;;5056227;28;20397;-69
2022/03/10 10:08:38;;;;;;;31.27;22.27;;;14.00;99.90;;;;;;5055467;28;20052;-69
2022/03/10 10:11:05;;;;;;;28.65;21.52;;;13.90;99.90;;;;;;5047410;28;20037;-69
2022/03/10 10:13:39;;;;;;;29.77;20.48;;;14.20;99.90;;;;;;5054670;28;20061;-69
2022/03/10 10:16:07;;;;;;;30.40;21.65;;;14.10;99.90;;;;;;5049284;28;20041;-68
2022/03/10 10:18:35;;;;;;;30.52;20.38;;;14.30;99.90;;;;;;5054994;28;20036;-69
2022/03/10 10:21:03;;;;;;;35.60;21.77;;;14.40;99.90;;;;;;5054750;28;20037;-69
2022/03/10 10:23:33;;;;;;;31.13;21.00;;;14.50;99.90;;;;;;5054777;28;20035;-68
2022/03/10 10:26:00;;;;;;;30.90;20.40;;;14.60;99.90;;;;;;5054809;28;20033;-69
2022/03/10 10:28:31;;;;;;;32.30;21.70;;;14.80;99.90;;;;;;5055216;28;20029;-70
2022/03/10 10:31:12;;;;;;;27.85;20.70;;;14.80;99.90;;;;;;5053806;28;20175;-69
2022/03/10 10:33:40;;;;;;;28.83;22.10;;;14.90;99.90;;;;;;5056121;28;20547;-69
2022/03/10 10:36:15;;;;;;;31.25;20.90;;;14.80;99.90;;;;;;5051599;28;20445;-69
2022/03/10 10:38:46;;;;;;;26.23;18.13;;;14.80;99.90;;;;;;5054310;28;20021;-69
2022/03/10 10:41:25;;;;;;;25.52;18.98;;;14.70;99.90;;;;;;5055906;28;20029;-69
2022/03/10 10:43:55;;;;;;;27.25;18.40;;;14.50;99.90;;;;;;5048135;28;20170;-69
2022/03/10 10:46:28;;;;;;;28.23;19.55;;;14.00;99.90;;;;;;5054348;28;20405;-69
2022/03/10 10:48:54;;;;;;;28.40;18.93;;;13.80;99.90;;;;;;5046783;28;20481;-68
2022/03/10 10:51:49;;;;;;;25.02;17.13;;;13.80;99.90;;;;;;5048445;28;20366;-69
2022/03/10 10:54:21;;;;;;;26.77;15.85;;;13.80;99.90;;;;;;5048784;28;20048;-68
2022/03/10 10:56:54;;;;;;;25.10;15.05;;;13.80;99.90;;;;;;5047468;28;20033;-69
2022/03/10 10:59:34;;;;;;;26.27;15.10;;;13.80;99.90;;;;;;5052915;28;20029;-69
2022/03/10 11:02:12;;;;;;;27.05;15.65;;;13.60;99.90;;;;;;5053521;28;20028;-69
2022/03/10 11:04:40;;;;;;;21.40;14.70;;;13.60;99.90;;;;;;5049591;28;20024;-69
2022/03/10 11:07:10;;;;;;;18.90;13.60;;;13.60;99.90;;;;;;5049364;28;20409;-68
2022/03/10 11:09:37;;;;;;;25.15;12.30;;;13.50;99.90;;;;;;5050026;28;20040;-68
2022/03/10 11:12:03;;;;;;;34.05;12.20;;;13.50;99.90;;;;;;5049201;28;20109;-69
2022/03/10 11:14:30;;;;;;;17.20;10.55;;;13.40;99.90;;;;;;5051570;28;20051;-68
2022/03/10 11:16:58;;;;;;;16.02;9.05;;;13.50;99.90;;;;;;5050768;28;20477;-69
2022/03/10 11:19:26;;;;;;;13.23;8.38;;;13.60;99.90;;;;;;5049228;28;20021;-69
2022/03/10 11:22:08;;;;;;;15.05;8.20;;;13.70;99.90;;;;;;5046128;28;20029;-69
2022/03/10 11:24:55;;;;;;;12.02;7.53;;;13.80;99.90;;;;;;5049059;28;20037;-69
2022/03/10 11:27:34;;;;;;;12.10;7.65;;;13.70;99.90;;;;;;5048291;28;20099;-69
2022/03/10 11:30:03;;;;;;;14.07;7.70;;;13.80;99.90;;;;;;5046896;28;20494;-68
2022/03/10 11:32:30;;;;;;;13.07;7.47;;;13.80;99.90;;;;;;5050142;28;20021;-69
2022/03/10 11:35:00;;;;;;;15.77;7.57;;;13.90;99.90;;;;;;5051412;28;20036;-69
2022/03/10 11:37:41;;;;;;;12.48;7.47;;;13.90;99.90;;;;;;5045524;28;20087;-68
2022/03/10 11:40:37;;;;;;;13.52;7.88;;;13.90;99.90;;;;;;5048703;28;20029;-69
2022/03/10 11:43:03;;;;;;;14.60;7.40;;;14.00;99.90;;;;;;5043598;28;20512;-69
2022/03/10 11:45:31;;;;;;;16.08;7.30;;;14.10;99.90;;;;;;5047992;28;20029;-69
2022/03/10 11:48:22;;;;;;;11.55;6.75;;;14.10;99.90;;;;;;5049977;28;20512;-69
2022/03/10 11:50:49;;;;;;;14.15;7.53;;;14.00;99.90;;;;;;5049467;28;20081;-69
2022/03/10 11:53:14;;;;;;;11.90;6.60;;;14.00;99.90;;;;;;5044952;28;20037;-68
2022/03/10 11:55:54;;;;;;;14.30;7.30;;;13.90;99.90;;;;;;5045499;28;20400;-68
2022/03/10 11:58:40;;;;;;;9.77;6.00;;;13.90;99.90;;;;;;5049222;28;20025;-68
2022/03/10 12:01:17;;;;;;;12.18;6.28;;;13.90;99.90;;;;;;5040788;28;20033;-69
2022/03/10 12:03:46;;;;;;;13.40;6.95;;;13.90;99.90;;;;;;5047937;28;20108;-69
2022/03/10 12:06:16;;;;;;;12.93;7.07;;;13.80;99.90;;;;;;5047611;28;20474;-69
2022/03/10 12:08:59;;;;;;;15.32;7.00;;;13.90;99.90;;;;;;5048979;28;20065;-71
2022/03/10 12:11:49;;;;;;;11.13;6.38;;;13.90;99.90;;;;;;5049415;28;20049;-72
2022/03/10 12:14:31;;;;;;;10.75;6.53;;;13.90;99.90;;;;;;5043938;28;20059;-71
2022/03/10 12:16:57;;;;;;;12.65;6.28;;;14.00;99.90;;;;;;5050088;28;20029;-72
2022/03/10 12:20:00;;;;;;;11.35;6.93;;;14.20;99.90;;;;;;5047229;28;20032;-71
2022/03/10 12:22:29;;;;;;;12.13;6.32;;;14.30;99.90;;;;;;5051540;28;20489;-72
2022/03/10 12:25:18;;;;;;;13.35;7.03;;;14.40;99.90;;;;;;5046736;28;20051;-69
2022/03/10 12:27:51;;;;;;;12.90;6.70;;;14.60;99.90;;;;;;5047785;28;20035;-69
2022/03/10 12:30:24;;;;;;;13.15;7.53;;;14.50;99.90;;;;;;5045026;28;20045;-71
2022/03/10 12:32:54;;;;;;;13.60;6.85;;;14.50;99.90;;;;;;5045812;28;20116;-68
2022/03/10 12:35:25;;;;;;;18.75;7.60;;;14.60;99.90;;;;;;5049704;28;20566;-70
2022/03/10 12:37:51;;;;;;;14.18;7.40;;;14.60;99.90;;;;;;5046729;28;20025;-68
2022/03/10 12:40:23;;;;;;;14.45;6.45;;;14.70;99.90;;;;;;5043453;28;20496;-70